createdAt,value
2022-08-18T00:03:11.771Z,20.25
2022-08-18T00:13:51.108Z,20.08
2022-08-18T00:24:12.655Z,20.18
2022-08-18T00:34:34.168Z,20.08
2022-08-18T00:44:56.667Z,20.17
2022-08-18T00:55:19.348Z,20.00
2022-08-18T01:05:48.289Z,20.08
2022-08-18T01:16:28.932Z,19.99
2022-08-18T01:26:50.621Z,20.12
2022-08-18T01:37:12.129Z,20.11
2022-08-18T01:47:48.213Z,20.20
2022-08-18T01:58:10.778Z,20.31
2022-08-18T02:08:32.359Z,20.28
2022-08-18T02:18:55.370Z,20.23
2022-08-18T02:29:16.987Z,20.08
2022-08-18T02:39:38.750Z,19.95
2022-08-18T02:50:00.317Z,19.64
2022-08-18T03:00:21.907Z,19.80
2022-08-18T03:10:43.414Z,19.63
2022-08-18T03:21:10.062Z,19.46
2022-08-18T03:31:31.636Z,19.58
2022-08-18T03:42:00.190Z,19.52
2022-08-18T03:52:23.491Z,19.65
2022-08-18T04:02:45.035Z,19.67
2022-08-18T04:13:06.582Z,19.59
2022-08-18T04:23:28.195Z,19.48
2022-08-18T04:33:50.002Z,19.62
2022-08-18T04:44:12.626Z,19.55
2022-08-18T04:54:38.767Z,19.53
2022-08-18T05:05:03.372Z,19.53
2022-08-18T05:15:24.920Z,19.64
2022-08-18T05:25:47.322Z,19.56
2022-08-18T05:36:15.243Z,19.70
2022-08-18T05:46:53.421Z,19.88
2022-08-18T05:57:19.938Z,19.71
2022-08-18T06:07:46.788Z,19.61
2022-08-18T06:18:31.157Z,19.68
2022-08-18T06:29:03.816Z,19.86
2022-08-18T06:39:41.726Z,20.01
2022-08-18T06:50:12.396Z,20.16
2022-08-18T07:00:36.551Z,20.16
2022-08-18T07:11:11.992Z,20.40
2022-08-18T07:21:37.912Z,20.45
2022-08-18T07:32:04.654Z,20.41
2022-08-18T07:43:02.470Z,20.79
2022-08-18T07:53:27.277Z,20.88
2022-08-18T08:03:57.310Z,21.38
2022-08-18T08:14:41.419Z,21.62
2022-08-18T08:25:17.510Z,21.64
2022-08-18T08:36:25.996Z,21.64
2022-08-18T08:46:51.117Z,22.16
2022-08-18T08:57:14.821Z,22.36
2022-08-18T09:08:00.644Z,22.30
2022-08-18T09:18:29.669Z,22.15
2022-08-18T09:28:59.630Z,22.80
2022-08-18T09:39:56.483Z,22.70
2022-08-18T09:50:28.372Z,22.20
2022-08-18T10:01:28.130Z,22.44
2022-08-18T10:12:19.595Z,22.81
2022-08-18T10:22:48.365Z,22.82
2022-08-18T10:33:18.310Z,22.74
2022-08-18T10:43:46.201Z,22.88
2022-08-18T10:54:29.867Z,22.91
2022-08-18T11:04:59.252Z,23.36
2022-08-18T11:26:19.540Z,23.35
2022-08-18T11:36:49.368Z,23.28
2022-08-18T11:47:23.642Z,23.19
2022-08-18T11:57:59.203Z,23.17
2022-08-18T12:08:56.163Z,23.77
2022-08-18T12:19:13.340Z,24.05
2022-08-18T12:29:43.296Z,23.57
2022-08-18T12:40:06.200Z,23.22
2022-08-18T12:50:30.859Z,23.52
2022-08-18T13:00:55.468Z,23.44
2022-08-18T13:11:23.773Z,23.08
2022-08-18T13:21:46.631Z,22.87
2022-08-18T13:32:09.491Z,23.13
2022-08-18T13:42:50.250Z,23.14
2022-08-18T13:53:16.440Z,23.04
2022-08-18T14:03:47.517Z,23.37
2022-08-18T14:14:09.459Z,23.30
2022-08-18T14:24:51.310Z,23.64
2022-08-18T14:35:32.072Z,22.91
2022-08-18T14:45:58.104Z,23.25
2022-08-18T14:56:19.950Z,23.00
2022-08-18T15:06:43.557Z,23.01
2022-08-18T15:17:17.984Z,22.83
2022-08-18T15:27:42.549Z,22.76
2022-08-18T15:38:05.646Z,22.80
2022-08-18T15:48:28.650Z,22.93
2022-08-18T15:58:51.288Z,22.61
2022-08-18T16:09:14.334Z,22.99
2022-08-18T16:19:37.396Z,22.81
2022-08-18T16:29:59.266Z,22.74
2022-08-18T16:40:21.211Z,22.59
2022-08-18T16:50:45.308Z,22.43
2022-08-18T17:01:25.492Z,22.79
2022-08-18T17:11:54.101Z,22.66
2022-08-18T17:22:17.624Z,22.13
2022-08-18T17:32:54.726Z,21.91
2022-08-18T17:43:21.777Z,21.80
2022-08-18T17:53:43.731Z,21.74
2022-08-18T18:04:05.512Z,21.43
2022-08-18T18:14:36.039Z,21.36
2022-08-18T18:25:04.531Z,21.28
2022-08-18T18:35:31.261Z,21.18
2022-08-18T18:46:24.122Z,20.99
2022-08-18T18:56:53.147Z,20.81
2022-08-18T19:07:24.038Z,20.75
2022-08-18T19:17:51.430Z,20.50
2022-08-18T19:28:19.982Z,20.50
2022-08-18T19:39:02.082Z,20.31
2022-08-18T19:49:53.233Z,20.30
2022-08-18T20:00:22.959Z,19.89
2022-08-18T20:11:20.927Z,19.88
2022-08-18T20:22:05.910Z,19.66
2022-08-18T20:32:34.428Z,19.46
2022-08-18T20:43:07.232Z,19.29
2022-08-18T20:53:55.330Z,19.11
2022-08-18T21:04:52.523Z,19.35
2022-08-18T21:15:14.086Z,19.17
2022-08-18T21:25:37.091Z,19.12
2022-08-18T21:35:58.662Z,18.93
2022-08-18T21:46:28.084Z,18.72
2022-08-18T21:57:20.318Z,18.77
2022-08-18T22:07:48.452Z,18.52
2022-08-18T22:18:16.110Z,18.51
2022-08-18T22:29:00.955Z,18.44
2022-08-18T22:39:30.121Z,18.41
2022-08-18T22:49:51.925Z,18.34
2022-08-18T23:00:19.121Z,18.35
2022-08-18T23:10:40.708Z,18.19
2022-08-18T23:21:02.269Z,17.98
2022-08-18T23:31:23.791Z,17.92
2022-08-18T23:41:45.277Z,17.95
2022-08-18T23:52:06.826Z,17.92
